Time;durP1;ratioP1;P1;durP2;ratioP2;P2;SDS_P1;SDS_P2;PMS_P1;PMS_P2;Temp;Humidity;BMP_temperature;BMP_pressure;BME280_temperature;BME280_humidity;BME280_pressure;Samples;Min_cycle;Max_cycle;Signal;HPM_P1;HPM_P2
2021/06/18 00:00:26;;;;;;;1999.90;999.90;;;;;;;22.95;62.47;98491.63;5077355;28;20040;-65
2021/06/18 00:02:53;;;;;;;1999.90;999.90;;;;;;;22.94;62.17;98486.41;5091289;28;20040;-67
2021/06/18 00:05:19;;;;;;;1999.90;999.90;;;;;;;22.38;63.67;98484.06;5081291;28;20051;-65
2021/06/18 00:07:47;;;;;;;1999.90;999.90;;;;;;;22.60;62.92;98489.66;5075676;28;20052;-66
2021/06/18 00:10:16;;;;;;;1999.90;999.90;;;;;;;22.61;62.97;98486.47;5089902;28;20048;-66
2021/06/18 00:12:43;;;;;;;1999.90;999.90;;;;;;;22.48;62.67;98493.72;5080185;28;20121;-66
2021/06/18 00:15:12;;;;;;;1999.90;999.90;;;;;;;22.43;63.21;98486.44;5090155;28;20059;-66
2021/06/18 00:17:38;;;;;;;1999.90;999.90;;;;;;;22.42;63.34;98484.88;5090500;28;20472;-66
2021/06/18 00:20:07;;;;;;;1999.90;999.90;;;;;;;22.55;63.11;98476.00;5095511;28;20105;-66
2021/06/18 00:22:36;;;;;;;1999.90;999.90;;;;;;;22.21;64.08;98479.19;5088340;28;20045;-66
2021/06/18 00:25:04;;;;;;;1999.90;999.90;;;;;;;22.03;64.83;98474.31;5091371;28;20403;-66
2021/06/18 00:27:31;;;;;;;1999.90;999.90;;;;;;;22.01;65.04;98473.13;5086696;28;20048;-66
2021/06/18 00:29:57;;;;;;;1999.90;999.90;;;;;;;21.85;65.20;98470.69;5085266;28;20106;-66
2021/06/18 00:32:24;;;;;;;1999.90;999.90;;;;;;;21.84;65.43;98471.88;5085862;28;20106;-66
2021/06/18 00:34:51;;;;;;;1999.90;999.90;;;;;;;21.85;65.58;98467.88;5086493;28;20482;-67
2021/06/18 00:37:18;;;;;;;1999.90;999.90;;;;;;;21.34;67.32;98484.56;5093929;28;20044;-66
2021/06/18 00:39:44;;;;;;;1999.90;999.90;;;;;;;21.23;67.63;98481.69;5087402;28;20455;-66
2021/06/18 00:42:11;;;;;;;1999.90;999.90;;;;;;;20.72;69.77;98480.59;5087951;28;20498;-66
2021/06/18 00:44:37;;;;;;;1999.90;999.90;;;;;;;21.10;68.52;98475.59;5088053;28;20105;-66
2021/06/18 00:47:05;;;;;;;1999.90;999.90;;;;;;;21.27;68.10;98479.72;5088397;28;20044;-66
2021/06/18 00:49:32;;;;;;;1999.90;999.90;;;;;;;21.46;67.49;98477.78;5089050;28;20498;-66
2021/06/18 00:51:58;;;;;;;1999.90;999.90;;;;;;;21.37;67.94;98477.34;5090359;28;20055;-67
2021/06/18 00:54:28;;;;;;;1999.90;999.90;;;;;;;21.49;67.37;98479.00;5095042;28;20040;-67
2021/06/18 00:56:57;;;;;;;1999.90;999.90;;;;;;;21.57;67.41;98480.66;5093117;28;20113;-66
2021/06/18 00:59:25;;;;;;;1999.90;999.90;;;;;;;21.83;66.43;98481.53;5085690;28;20044;-66
2021/06/18 01:01:52;;;;;;;1999.90;999.90;;;;;;;21.99;66.09;98477.16;5089693;28;20070;-67
2021/06/18 01:04:22;;;;;;;1999.90;999.90;;;;;;;22.07;66.02;98475.13;5087383;28;20045;-65
2021/06/18 01:06:56;;;;;;;1999.90;999.90;;;;;;;22.12;65.79;98483.22;5081032;28;20051;-65
2021/06/18 01:09:23;;;;;;;1999.90;999.90;;;;;;;22.10;65.64;98463.06;5096319;28;20113;-67
2021/06/18 01:11:58;;;;;;;1999.90;999.90;;;;;;;22.13;65.47;98467.91;5090483;28;20052;-66
2021/06/18 01:14:34;;;;;;;1999.90;999.90;;;;;;;22.10;65.89;98479.97;5090001;28;20097;-67
2021/06/18 01:17:14;;;;;;;1999.90;999.90;;;;;;;22.04;66.42;98475.16;5085102;28;20052;-66
2021/06/18 01:19:50;;;;;;;1999.90;999.90;;;;;;;21.93;66.27;98475.13;5094050;28;20502;-66
2021/06/18 01:22:21;;;;;;;1999.90;999.90;;;;;;;21.78;66.22;98461.03;5093712;28;20056;-66
2021/06/18 01:24:50;;;;;;;1999.90;999.90;;;;;;;21.75;66.64;98459.00;5080058;28;20048;-66
2021/06/18 01:27:32;;;;;;;1999.90;999.90;;;;;;;21.78;66.64;98463.84;5084104;28;20110;-65
2021/06/18 01:30:18;;;;;;;1999.90;999.90;;;;;;;21.81;66.62;98460.22;5090635;28;20097;-66
2021/06/18 01:33:05;;;;;;;1999.90;999.90;;;;;;;21.86;66.62;98458.22;5094581;28;20036;-66
2021/06/18 01:35:47;;;;;;;1999.90;999.90;;;;;;;21.95;66.42;98458.63;5079206;28;20055;-65
2021/06/18 01:38:14;;;;;;;;;;;;;;;22.06;65.67;98450.19;5096044;28;20059;-66
2021/06/18 01:40:43;;;;;;;1999.90;999.90;;;;;;;21.91;66.29;98455.00;5088480;28;19928;-67
2021/06/18 01:43:13;;;;;;;1999.90;999.90;;;;;;;21.99;66.52;98448.19;5081750;28;20194;-66
2021/06/18 01:45:42;;;;;;;1999.90;999.90;;;;;;;21.69;67.84;98448.53;5090441;28;20368;-66
2021/06/18 01:48:10;;;;;;;1999.90;999.90;;;;;;;21.39;69.61;98456.06;5086860;28;20052;-66
2021/06/18 01:50:38;;;;;;;1999.90;999.90;;;;;;;21.30;69.85;98458.41;5084085;28;20051;-66
2021/06/18 01:53:10;;;;;;;1999.90;999.90;;;;;;;21.31;70.50;98456.44;5080275;28;20095;-66
2021/06/18 01:55:41;;;;;;;1999.90;999.90;;;;;;;21.01;71.18;98458.28;5089118;28;20051;-67
2021/06/18 01:58:10;;;;;;;1999.90;999.90;;;;;;;21.07;71.47;98458.72;5095036;28;20043;-67
2021/06/18 02:00:54;;;;;;;1999.90;999.90;;;;;;;21.16;70.94;98466.81;5086210;28;20237;-66
2021/06/18 02:03:26;;;;;;;1999.90;999.90;;;;;;;20.74;71.84;98464.16;5090405;28;20051;-66
2021/06/18 02:05:57;;;;;;;1999.90;999.90;;;;;;;20.80;71.70;98466.56;5091670;28;20124;-66
2021/06/18 02:08:26;;;;;;;1999.90;999.90;;;;;;;20.87;71.96;98466.63;5080702;28;20085;-66
2021/06/18 02:10:54;;;;;;;1999.90;999.90;;;;;;;20.95;71.52;98462.69;5084110;28;20106;-66
2021/06/18 02:13:21;;;;;;;1999.90;999.90;;;;;;;21.03;71.29;98469.13;5092914;28;20036;-67
2021/06/18 02:15:49;;;;;;;1999.90;999.90;;;;;;;20.96;71.46;98461.50;5080761;28;20051;-66
2021/06/18 02:18:20;;;;;;;1999.90;999.90;;;;;;;21.05;71.63;98464.75;5080375;28;20983;-66
2021/06/18 02:20:47;;;;;;;1999.90;999.90;;;;;;;21.13;70.88;98467.59;5085561;28;20048;-67
2021/06/18 02:23:15;;;;;;;1999.90;999.90;;;;;;;21.16;70.92;98464.00;5082991;28;20044;-66
2021/06/18 02:25:44;;;;;;;1999.90;999.90;;;;;;;21.11;71.06;98459.56;5078419;28;20045;-66
2021/06/18 02:28:11;;;;;;;1999.90;999.90;;;;;;;21.11;70.54;98460.34;5088889;28;20052;-67
2021/06/18 02:30:39;;;;;;;1999.90;999.90;;;;;;;21.07;71.20;98465.16;5093592;28;20047;-66
2021/06/18 02:33:11;;;;;;;1999.90;999.90;;;;;;;21.01;71.52;98460.31;5077603;28;20048;-67
2021/06/18 02:35:43;;;;;;;1999.90;999.90;;;;;;;20.92;72.07;98463.47;5092225;28;20108;-65
2021/06/18 02:38:11;;;;;;;1999.90;999.90;;;;;;;20.79;72.45;98470.59;5085336;28;20425;-66
2021/06/18 02:40:39;;;;;;;1999.90;999.90;;;;;;;20.80;72.31;98477.81;5090507;28;20129;-66
2021/06/18 02:43:06;;;;;;;1999.90;999.90;;;;;;;20.53;73.25;98472.41;5085569;28;20040;-64
2021/06/18 02:45:34;;;;;;;1999.90;999.90;;;;;;;20.67;73.14;98468.91;5084236;28;20052;-64
2021/06/18 02:48:11;;;;;;;1999.90;999.90;;;;;;;20.72;72.14;98474.16;5074902;28;20056;-64
2021/06/18 02:50:39;;;;;;;1999.90;999.90;;;;;;;20.63;73.45;98480.09;5085217;28;20052;-64
2021/06/18 02:53:06;;;;;;;1999.90;999.90;;;;;;;20.37;74.01;98476.28;5083257;28;20106;-64
2021/06/18 02:55:55;;;;;;;1999.90;999.90;;;;;;;20.27;74.42;98474.19;5078103;28;20051;-64
2021/06/18 02:58:41;;;;;;;1999.90;999.90;;;;;;;20.09;74.85;98471.22;5084150;28;20048;-64
2021/06/18 03:01:09;;;;;;;1999.90;999.90;;;;;;;20.21;74.58;98470.94;5090557;28;20424;-64
2021/06/18 03:03:41;;;;;;;1999.90;999.90;;;;;;;20.15;74.70;98482.91;5088864;28;20037;-64
2021/06/18 03:06:09;;;;;;;1999.90;999.90;;;;;;;20.34;74.20;98479.06;5077852;28;20098;-64
2021/06/18 03:08:41;;;;;;;1999.90;999.90;;;;;;;20.31;74.10;98474.25;5088540;28;20128;-64
2021/06/18 03:11:10;;;;;;;1999.90;999.90;;;;;;;20.35;74.11;98480.66;5087467;28;20048;-64
2021/06/18 03:13:43;;;;;;;1999.90;999.90;;;;;;;20.24;74.62;98489.00;5090482;28;20043;-64
2021/06/18 03:16:12;;;;;;;1999.90;999.90;;;;;;;20.41;74.26;98482.75;5081062;28;20109;-64
2021/06/18 03:18:42;;;;;;;1999.90;999.90;;;;;;;20.34;74.33;98485.50;5085370;28;20044;-64
2021/06/18 03:21:11;;;;;;;1999.90;999.90;;;;;;;20.24;75.21;98487.00;5091712;28;20438;-64
2021/06/18 03:23:41;;;;;;;1999.90;999.90;;;;;;;20.57;73.83;98484.47;5080487;28;20098;-64
2021/06/18 03:26:08;;;;;;;1999.90;999.90;;;;;;;20.57;74.03;98482.47;5088439;28;20051;-64
2021/06/18 03:28:36;;;;;;;1999.90;999.90;;;;;;;20.59;74.20;98480.06;5085382;28;20044;-64
2021/06/18 03:31:07;;;;;;;1999.90;999.90;;;;;;;20.75;73.60;98484.63;5092895;28;20409;-64
2021/06/18 03:33:35;;;;;;;1999.90;999.90;;;;;;;21.02;73.05;98485.22;5089035;28;20048;-64
2021/06/18 03:36:03;;;;;;;1999.90;999.90;;;;;;;21.51;71.71;98488.69;5081437;28;20044;-64
2021/06/18 03:38:32;;;;;;;1999.90;999.90;;;;;;;21.84;70.36;98488.75;5076878;28;20106;-64
2021/06/18 03:40:59;;;;;;;1999.90;999.90;;;;;;;22.19;69.99;98492.88;5090662;28;20376;-64
2021/06/18 03:43:27;;;;;;;1999.90;999.90;;;;;;;22.64;68.38;98487.66;5082818;28;20050;-64
2021/06/18 03:46:00;;;;;;;1999.90;999.90;;;;;;;23.01;67.03;98492.81;5087868;28;20421;-64
2021/06/18 03:48:28;;;;;;;1999.90;999.90;;;;;;;23.29;66.24;98490.38;5091045;28;20387;-64
2021/06/18 03:50:55;;;;;;;1999.90;999.90;;;;;;;23.61;64.52;98492.25;5091825;28;20101;-64
2021/06/18 03:53:21;;;;;;;1999.90;999.90;;;;;;;23.75;64.36;98495.03;5091735;28;20074;-64
2021/06/18 03:55:48;;;;;;;1999.90;999.90;;;;;;;23.88;63.94;98498.22;5090503;28;20048;-64
2021/06/18 03:58:21;;;;;;;1999.90;999.90;;;;;;;24.33;62.45;98497.53;5082490;28;20044;-64
2021/06/18 04:00:50;;;;;;;1999.90;999.90;;;;;;;24.65;60.80;98502.13;5081298;28;20040;-65
2021/06/18 04:03:20;;;;;;;1999.90;999.90;;;;;;;24.70;60.14;98504.50;5094860;28;20040;-64
2021/06/18 04:05:50;;;;;;;1999.90;999.90;;;;;;;24.90;60.53;98511.16;5088096;28;20040;-64
2021/06/18 04:08:20;;;;;;;1999.90;999.90;;;;;;;25.35;59.36;98509.53;5085126;28;20097;-64
2021/06/18 04:10:46;;;;;;;1999.90;999.90;;;;;;;25.55;58.27;98516.16;5089651;28;20048;-64
2021/06/18 04:13:14;;;;;;;1999.90;999.90;;;;;;;25.54;57.75;98517.38;5089070;28;20055;-65
2021/06/18 04:15:41;;;;;;;1999.90;999.90;;;;;;;25.79;57.12;98508.56;5088836;28;20079;-64
2021/06/18 04:18:09;;;;;;;1999.90;999.90;;;;;;;25.27;57.87;98511.63;5089569;28;20075;-64
2021/06/18 04:20:37;;;;;;;1999.90;999.90;;;;;;;24.65;60.17;98517.06;5088494;28;20486;-64
2021/06/18 04:23:04;;;;;;;1999.90;999.90;;;;;;;24.41;61.19;98507.53;5090716;28;20052;-64
2021/06/18 04:25:30;;;;;;;1999.90;999.90;;;;;;;24.48;61.60;98518.78;5089579;28;20056;-64
2021/06/18 04:27:59;;;;;;;1999.90;999.90;;;;;;;25.06;61.31;98518.31;5091058;28;20044;-64
2021/06/18 04:30:25;;;;;;;1999.90;999.90;;;;;;;25.16;59.09;98517.41;5090221;28;20047;-65
2021/06/18 04:32:52;;;;;;;1999.90;999.90;;;;;;;25.23;58.94;98527.81;5089618;28;20501;-66
2021/06/18 04:35:19;;;;;;;1999.90;999.90;;;;;;;25.25;58.34;98525.38;5083279;28;20105;-66
2021/06/18 04:37:45;;;;;;;1999.90;999.90;;;;;;;25.09;59.40;98523.91;5089048;28;20453;-66
2021/06/18 04:40:12;;;;;;;1999.90;999.90;;;;;;;25.06;58.96;98529.63;5088023;28;20093;-66
2021/06/18 04:42:40;;;;;;;1999.90;999.90;;;;;;;24.92;58.95;98522.88;5079229;28;20131;-66
2021/06/18 04:45:08;;;;;;;1999.90;999.90;;;;;;;25.02;59.25;98515.50;5079400;28;20102;-63
2021/06/18 04:47:35;;;;;;;1999.90;999.90;;;;;;;24.79;58.95;98533.09;5083003;28;20189;-63
2021/06/18 04:50:03;;;;;;;1999.90;999.90;;;;;;;25.15;59.12;98515.78;5078721;28;20117;-64
2021/06/18 04:52:31;;;;;;;1999.90;999.90;;;;;;;25.65;57.37;98531.41;5089786;28;20387;-64
2021/06/18 04:55:01;;;;;;;1999.90;999.90;;;;;;;25.66;57.40;98524.50;5088503;28;20068;-64
2021/06/18 04:57:28;;;;;;;1999.90;999.90;;;;;;;25.59;57.08;98525.41;5091375;28;20220;-64
2021/06/18 04:59:56;;;;;;;1999.90;999.90;;;;;;;25.48;57.70;98521.91;5075904;28;20102;-64
2021/06/18 05:02:23;;;;;;;1999.90;999.90;;;;;;;24.99;58.48;98521.19;5091364;28;20101;-64
2021/06/18 05:04:49;;;;;;;1999.90;999.90;;;;;;;24.79;58.78;98516.94;5088982;28;20109;-63
2021/06/18 05:07:16;;;;;;;1999.90;999.90;;;;;;;24.69;60.20;98517.03;5080936;28;20114;-64
2021/06/18 05:09:43;;;;;;;1999.90;999.90;;;;;;;24.66;59.89;98517.88;5092886;28;20056;-64
2021/06/18 05:12:09;;;;;;;1999.90;999.90;;;;;;;25.06;59.22;98521.13;5086658;28;20040;-64
2021/06/18 05:14:36;;;;;;;1999.90;999.90;;;;;;;25.79;57.76;98525.56;5082614;28;20047;-64
2021/06/18 05:17:03;;;;;;;1999.90;999.90;;;;;;;26.18;56.12;98529.09;5095662;28;20060;-65
2021/06/18 05:19:30;;;;;;;1999.90;999.90;;;;;;;26.30;57.09;98536.22;5094841;28;20078;-66
2021/06/18 05:21:57;;;;;;;1999.90;999.90;;;;;;;25.94;56.43;98537.50;5079376;28;20195;-65
2021/06/18 05:24:24;;;;;;;1999.90;999.90;;;;;;;26.19;55.95;98542.06;5095047;28;20090;-64
2021/06/18 05:26:50;;;;;;;1999.90;999.90;;;;;;;26.31;56.72;98544.28;5094716;28;20555;-64
2021/06/18 05:29:17;;;;;;;1999.90;999.90;;;;;;;26.64;56.73;98538.91;5087531;28;20044;-64
2021/06/18 05:31:44;;;;;;;1999.90;999.90;;;;;;;27.18;55.76;98548.56;5085967;28;20139;-64
2021/06/18 05:34:10;;;;;;;1999.90;999.90;;;;;;;27.47;53.57;98542.38;5088138;28;20093;-64
2021/06/18 05:36:39;;;;;;;1999.90;999.90;;;;;;;27.64;52.43;98540.41;5081984;28;20075;-65
2021/06/18 05:39:05;;;;;;;1999.90;999.90;;;;;;;27.39;54.22;98548.19;5085352;28;20174;-64
2021/06/18 05:41:32;;;;;;;1999.90;999.90;;;;;;;27.53;53.00;98538.59;5090748;28;20105;-64
2021/06/18 05:43:59;;;;;;;1999.90;999.90;;;;;;;26.68;55.91;98538.91;5094123;28;20093;-64
2021/06/18 05:46:25;;;;;;;1999.90;999.90;;;;;;;26.86;55.16;98539.38;5087054;28;20432;-65
2021/06/18 05:48:52;;;;;;;1999.90;999.90;;;;;;;27.08;54.93;98538.19;5086385;28;20106;-66
2021/06/18 05:51:19;;;;;;;1999.90;999.90;;;;;;;27.53;54.49;98541.44;5081002;28;20044;-66
2021/06/18 05:53:46;;;;;;;1999.90;999.90;;;;;;;28.14;53.51;98541.38;5084913;28;20036;-66
2021/06/18 05:56:12;;;;;;;1999.90;999.90;;;;;;;27.84;51.85;98544.03;5088689;28;20496;-64
2021/06/18 05:58:41;;;;;;;1999.90;999.90;;;;;;;27.97;51.53;98537.72;5078048;28;20140;-64
2021/06/18 06:01:07;;;;;;;1999.90;999.90;;;;;;;27.66;52.93;98537.91;5088259;28;20048;-64
2021/06/18 06:03:54;;;;;;;1999.90;999.90;;;;;;;28.30;51.45;98541.44;5092106;28;21599;-66
2021/06/18 06:06:21;;;;;;;1999.90;999.90;;;;;;;27.86;50.71;98541.56;5084660;28;20048;-65
2021/06/18 06:08:53;;;;;;;1999.90;999.90;;;;;;;28.56;51.76;98538.78;5093786;28;20052;-65
2021/06/18 06:11:22;;;;;;;1999.90;999.90;;;;;;;28.92;50.32;98552.16;5087569;28;20040;-65
2021/06/18 06:13:50;;;;;;;1999.90;999.90;;;;;;;28.27;48.57;98550.81;5082013;28;20062;-64
2021/06/18 06:16:17;;;;;;;1999.90;999.90;;;;;;;28.59;49.01;98549.28;5096442;28;20048;-65
2021/06/18 06:18:44;;;;;;;1999.90;999.90;;;;;;;28.35;49.43;98549.44;5085105;28;20048;-64
2021/06/18 06:21:11;;;;;;;1999.90;999.90;;;;;;;28.42;48.35;98554.97;5082524;28;20047;-64
2021/06/18 06:23:38;;;;;;;1999.90;999.90;;;;;;;28.61;48.92;98561.03;5086916;28;20105;-66
2021/06/18 06:26:05;;;;;;;1999.90;999.90;;;;;;;29.33;48.67;98548.66;5088032;28;20044;-66
2021/06/18 06:28:32;;;;;;;1999.90;999.90;;;;;;;29.83;47.16;98549.31;5083626;28;20056;-65
2021/06/18 06:31:00;;;;;;;1999.90;999.90;;;;;;;29.96;46.51;98554.22;5092346;28;20110;-66
2021/06/18 06:33:26;;;;;;;1999.90;999.90;;;;;;;30.18;44.10;98549.47;5093374;28;20044;-66
2021/06/18 06:35:53;;;;;;;1999.90;999.90;;;;;;;30.38;45.44;98554.16;5093347;28;20097;-66
2021/06/18 06:38:20;;;;;;;1999.90;999.90;;;;;;;29.30;47.83;98548.75;5091438;28;20394;-65
2021/06/18 06:40:48;;;;;;;1999.90;999.90;;;;;;;28.76;47.01;98545.22;5091655;28;20441;-65
2021/06/18 06:43:15;;;;;;;1999.90;999.90;;;;;;;29.60;46.98;98549.56;5085556;28;20051;-66
2021/06/18 06:45:42;;;;;;;1999.90;999.90;;;;;;;30.13;44.90;98552.91;5090693;28;20596;-66
2021/06/18 06:48:09;;;;;;;1999.90;999.90;;;;;;;29.74;45.02;98551.97;5094537;28;20105;-65
2021/06/18 06:50:36;;;;;;;1999.90;999.90;;;;;;;30.42;44.44;98548.38;5093931;28;20048;-65
2021/06/18 06:53:03;;;;;;;1999.90;999.90;;;;;;;30.19;45.78;98550.25;5082842;28;20098;-65
2021/06/18 06:55:29;;;;;;;1999.90;999.90;;;;;;;30.29;44.19;98554.81;5082321;28;20044;-65
2021/06/18 06:57:56;;;;;;;1999.90;999.90;;;;;;;30.15;44.70;98558.94;5086579;28;20432;-65
2021/06/18 07:00:23;;;;;;;1999.90;999.90;;;;;;;29.70;47.65;98554.16;5091282;28;20489;-66
2021/06/18 07:02:49;;;;;;;1999.90;999.90;;;;;;;29.82;46.35;98553.41;5090163;28;20052;-66
2021/06/18 07:05:16;;;;;;;1999.90;999.90;;;;;;;29.95;43.50;98558.31;5092334;28;20055;-66
2021/06/18 07:07:43;;;;;;;1999.90;999.90;;;;;;;30.53;41.15;98552.50;5093127;28;20747;-66
2021/06/18 07:10:10;;;;;;;1999.90;999.90;;;;;;;30.73;43.63;98557.16;5094629;28;20056;-66
2021/06/18 07:12:38;;;;;;;1999.90;999.90;;;;;;;31.33;42.19;98556.34;5089402;28;20122;-64
2021/06/18 07:15:07;;;;;;;1999.90;999.90;;;;;;;31.16;42.17;98557.75;5087875;28;20513;-66
2021/06/18 07:17:33;;;;;;;1999.90;999.90;;;;;;;31.36;41.81;98555.41;5089173;28;20057;-66
2021/06/18 07:20:01;;;;;;;1999.90;999.90;;;;;;;31.80;41.19;98551.81;5091402;28;20048;-65
2021/06/18 07:22:30;;;;;;;1999.90;999.90;;;;;;;31.03;44.01;98554.94;5080004;28;20055;-65
2021/06/18 07:24:58;;;;;;;1999.90;999.90;;;;;;;31.17;43.39;98547.94;5080255;28;20049;-66
2021/06/18 07:27:26;;;;;;;1999.90;999.90;;;;;;;32.01;40.39;98552.25;5084400;28;20056;-66
2021/06/18 07:29:54;;;;;;;1999.90;999.90;;;;;;;32.21;38.06;98544.13;5084055;28;20337;-66
2021/06/18 07:32:24;;;;;;;1999.90;999.90;;;;;;;31.47;40.00;98545.66;5091978;28;20048;-66
2021/06/18 07:34:51;;;;;;;1999.90;999.90;;;;;;;31.16;41.28;98547.16;5086872;28;20040;-66
2021/06/18 07:37:17;;;;;;;1999.90;999.90;;;;;;;31.92;39.74;98541.56;5082643;28;20043;-66
2021/06/18 07:39:46;;;;;;;1999.90;999.90;;;;;;;31.99;38.23;98535.56;5091625;28;20382;-66
2021/06/18 07:42:27;;;;;;;1999.90;999.90;;;;;;;32.36;38.49;98543.56;5082703;28;20098;-65
2021/06/18 07:44:54;;;;;;;1999.90;999.90;;;;;;;32.28;40.12;98538.13;5081987;28;20044;-65
2021/06/18 07:47:23;;;;;;;1999.90;999.90;;;;;;;32.02;36.80;98536.69;5080859;28;20101;-64
2021/06/18 07:49:51;;;;;;;1999.90;999.90;;;;;;;31.46;39.55;98535.47;5092645;28;20079;-65
2021/06/18 07:52:17;;;;;;;1999.90;999.90;;;;;;;32.27;39.46;98535.72;5090248;28;20043;-65
2021/06/18 07:54:45;;;;;;;1999.90;999.90;;;;;;;32.69;37.80;98537.34;5093203;28;20052;-65
2021/06/18 07:57:12;;;;;;;1999.90;999.90;;;;;;;33.00;35.41;98540.91;5082597;28;20052;-65
2021/06/18 07:59:39;;;;;;;1999.90;999.90;;;;;;;32.74;33.68;98540.38;5086073;28;20096;-65
2021/06/18 08:02:06;;;;;;;1999.90;999.90;;;;;;;32.38;34.30;98544.69;5086941;28;20044;-66
2021/06/18 08:04:48;;;;;;;1999.90;999.90;;;;;;;31.88;35.58;98535.19;5092317;28;20044;-66
2021/06/18 08:07:15;;;;;;;1999.90;999.90;;;;;;;32.10;35.70;98535.16;5090031;28;20148;-66
2021/06/18 08:09:42;;;;;;;1999.90;999.90;;;;;;;31.92;34.91;98535.84;5077389;28;20482;-65
2021/06/18 08:12:08;;;;;;;1999.90;999.90;;;;;;;31.78;35.69;98534.31;5093999;28;20168;-65
2021/06/18 08:14:35;;;;;;;1999.90;999.90;;;;;;;31.74;39.72;98540.19;5089774;28;20040;-64
2021/06/18 08:17:02;;;;;;;1999.90;999.90;;;;;;;32.38;35.58;98541.00;5098826;28;20494;-66
2021/06/18 08:19:29;;;;;;;1999.90;999.90;;;;;;;32.23;34.35;98538.75;5080422;28;20102;-65
2021/06/18 08:21:56;;;;;;;1999.90;999.90;;;;;;;32.40;34.58;98529.91;5087337;28;20105;-65
2021/06/18 08:24:22;;;;;;;1999.90;999.90;;;;;;;32.49;36.13;98535.66;5093310;28;20109;-66
2021/06/18 08:26:50;;;;;;;1999.90;999.90;;;;;;;32.46;37.08;98528.03;5080387;28;20491;-66
2021/06/18 08:29:17;;;;;;;1999.90;999.90;;;;;;;32.37;35.79;98533.72;5086285;28;20443;-66
2021/06/18 08:31:43;;;;;;;1999.90;999.90;;;;;;;32.63;35.83;98525.69;5083335;28;20052;-65
2021/06/18 08:34:10;;;;;;;1999.90;999.90;;;;;;;32.87;36.42;98523.09;5088750;28;20048;-64
2021/06/18 08:36:39;;;;;;;1999.90;999.90;;;;;;;33.02;35.05;98531.06;5087643;28;20441;-65
2021/06/18 08:39:06;;;;;;;1999.90;999.90;;;;;;;32.76;35.42;98523.53;5081402;28;20059;-65
2021/06/18 08:41:33;;;;;;;1999.90;999.90;;;;;;;33.52;34.19;98523.94;5081305;28;20102;-65
2021/06/18 08:44:00;;;;;;;1999.90;999.90;;;;;;;33.77;34.72;98524.09;5094566;28;20392;-65
2021/06/18 08:46:27;;;;;;;1999.90;999.90;;;;;;;33.65;32.52;98522.97;5095646;28;20051;-65
2021/06/18 08:48:54;;;;;;;1999.90;999.90;;;;;;;33.59;31.26;98519.94;5091741;28;20052;-65
2021/06/18 08:51:21;;;;;;;1999.90;999.90;;;;;;;33.18;32.65;98516.44;5093710;28;20094;-66
2021/06/18 08:53:48;;;;;;;1999.90;999.90;;;;;;;33.27;32.16;98519.31;5094252;28;20124;-66
2021/06/18 08:56:15;;;;;;;1999.90;999.90;;;;;;;33.45;30.06;98514.88;5093537;28;20105;-66
2021/06/18 08:58:41;;;;;;;1999.90;999.90;;;;;;;33.69;31.42;98510.06;5091801;28;20445;-66
2021/06/18 09:01:08;;;;;;;1999.90;999.90;;;;;;;33.94;32.53;98507.31;5088712;28;20048;-66
2021/06/18 09:03:37;;;;;;;1999.90;999.90;;;;;;;34.14;31.08;98513.31;5092781;28;20078;-66
2021/06/18 09:06:36;;;;;;;1999.90;999.90;;;;;;;34.39;31.51;98514.19;5092262;28;20072;-66
2021/06/18 09:09:31;;;;;;;1999.90;999.90;;;;;;;34.74;31.59;98508.75;5088272;28;20110;-66
2021/06/18 09:12:00;;;;;;;1999.90;999.90;;;;;;;34.79;31.38;98509.41;5083480;28;20172;-66
2021/06/18 09:14:33;;;;;;;1999.90;999.90;;;;;;;35.50;30.07;98501.22;5079208;28;20162;-66
2021/06/18 09:17:23;;;;;;;1999.90;999.90;;;;;;;35.04;31.26;98500.28;5094775;28;20126;-66
2021/06/18 09:19:52;;;;;;;1999.90;999.90;;;;;;;35.16;29.86;98500.53;5093221;28;20391;-66
2021/06/18 09:22:24;;;;;;;1999.90;999.90;;;;;;;35.46;31.44;98507.16;5079633;28;20425;-66
2021/06/18 09:25:12;;;;;;;1999.90;999.90;;;;;;;34.55;31.02;98498.66;5094026;28;20048;-66
2021/06/18 09:27:46;;;;;;;1999.90;999.90;;;;;;;34.87;30.86;98496.28;5087728;28;20095;-66
2021/06/18 09:30:30;;;;;;;1999.90;999.90;;;;;;;35.02;29.42;98497.09;5084527;28;20086;-66
2021/06/18 09:33:04;;;;;;;1999.90;999.90;;;;;;;34.61;28.70;98499.56;5077737;28;20040;-66
2021/06/18 09:35:32;;;;;;;1999.90;999.90;;;;;;;35.66;30.12;98497.88;5084683;28;20098;-66
2021/06/18 09:38:02;;;;;;;1999.90;999.90;;;;;;;36.51;29.71;98492.78;5092437;28;20337;-66
2021/06/18 09:40:30;;;;;;;1999.90;999.90;;;;;;;34.92;29.97;98505.00;5095033;28;20094;-66
2021/06/18 09:43:17;;;;;;;1999.90;999.90;;;;;;;34.67;31.88;98500.53;5084106;28;20102;-66
2021/06/18 09:45:44;;;;;;;1999.90;999.90;;;;;;;35.87;31.12;98506.63;5093113;28;20109;-66
2021/06/18 09:48:11;;;;;;;1999.90;999.90;;;;;;;34.28;31.14;98503.25;5093503;28;20048;-66
2021/06/18 09:50:40;;;;;;;1999.90;999.90;;;;;;;33.70;34.45;98487.91;5079385;28;20048;-66
2021/06/18 09:53:23;;;;;;;1999.90;999.90;;;;;;;34.35;36.99;98485.69;5092948;28;20051;-66
2021/06/18 09:56:07;;;;;;;1999.90;999.90;;;;;;;34.60;32.76;98488.56;5085162;28;20048;-66
2021/06/18 09:58:42;;;;;;;1999.90;999.90;;;;;;;35.09;31.74;98501.69;5084199;28;20052;-64
2021/06/18 10:01:24;;;;;;;1999.90;999.90;;;;;;;34.07;31.45;98502.19;5081041;28;20097;-65
2021/06/18 10:04:04;;;;;;;1999.90;999.90;;;;;;;34.75;30.10;98496.00;5095001;28;20047;-66
2021/06/18 10:06:33;;;;;;;1999.90;999.90;;;;;;;35.63;29.79;98487.34;5092257;28;20136;-66
2021/06/18 10:09:01;;;;;;;1999.90;999.90;;;;;;;34.49;28.53;98492.00;5080781;28;20044;-65
2021/06/18 10:11:31;;;;;;;1999.90;999.90;;;;;;;35.19;28.48;98490.91;5085781;28;20119;-65
2021/06/18 10:13:58;;;;;;;1999.90;999.90;;;;;;;35.61;28.33;98487.03;5085917;28;20383;-65
2021/06/18 10:16:26;;;;;;;1999.90;999.90;;;;;;;36.43;28.92;98483.75;5073987;28;20044;-65
2021/06/18 10:18:57;;;;;;;1999.90;999.90;;;;;;;36.17;27.04;98481.50;5095508;28;20380;-66
2021/06/18 10:21:26;;;;;;;1999.90;999.90;;;;;;;36.18;27.88;98482.28;5085619;28;20044;-65
2021/06/18 10:24:01;;;;;;;1999.90;999.90;;;;;;;36.14;28.63;98480.41;5076167;28;20052;-65
2021/06/18 10:26:29;;;;;;;1999.90;999.90;;;;;;;33.73;32.94;98481.25;5086813;28;20090;-65
2021/06/18 10:28:58;;;;;;;1999.90;999.90;;;;;;;33.75;33.36;98480.78;5092655;28;20063;-65
2021/06/18 10:31:31;;;;;;;1999.90;999.90;;;;;;;34.51;30.06;98475.88;5092467;28;20055;-65
2021/06/18 10:34:08;;;;;;;1999.90;999.90;;;;;;;35.26;30.47;98479.84;5078443;28;20071;-65
2021/06/18 10:36:36;;;;;;;1999.90;999.90;;;;;;;34.99;31.34;98480.84;5097197;28;20044;-65
2021/06/18 10:39:16;;;;;;;1999.90;999.90;;;;;;;35.55;30.49;98486.97;5105303;28;20048;-65
2021/06/18 10:41:47;;;;;;;1999.90;999.90;;;;;;;34.80;30.17;98485.94;5076556;28;20055;-65
2021/06/18 10:44:43;;;;;;;1999.90;999.90;;;;;;;35.95;29.61;98473.28;5094448;28;20051;-65
2021/06/18 10:47:43;;;;;;;1999.90;999.90;;;;;;;34.60;29.73;98472.16;5088600;28;20048;-65
2021/06/18 10:50:12;;;;;;;1999.90;999.90;;;;;;;34.48;32.27;98476.06;5080067;28;20472;-65
2021/06/18 10:52:43;;;;;;;1999.90;999.90;;;;;;;34.54;31.16;98477.00;5077775;28;20128;-66
2021/06/18 10:55:10;;;;;;;1999.90;999.90;;;;;;;34.80;32.17;98468.72;5083845;28;20041;-66
2021/06/18 10:57:50;;;;;;;1999.90;999.90;;;;;;;34.35;30.28;98471.34;5088087;28;20588;-67
2021/06/18 11:00:27;;;;;;;1999.90;999.90;;;;;;;33.96;32.78;98459.69;5077824;28;20044;-65
2021/06/18 11:02:53;;;;;;;1999.90;999.90;;;;;;;34.83;30.54;98464.84;5094634;27;20130;-65
2021/06/18 11:05:22;;;;;;;1999.90;999.90;;;;;;;33.74;29.32;98457.06;5086492;28;20044;-65